Time;durP1;ratioP1;P1;durP2;ratioP2;P2;SDS_P1;SDS_P2;PMS_P1;PMS_P2;Temp;Humidity;BMP_temperature;BMP_pressure;BME280_temperature;BME280_humidity;BME280_pressure;Samples;Min_cycle;Max_cycle;Signal;HPM_P1;HPM_P2
2023/03/01 00:01:30;;;;;;;2.93;2.83;;;;;;;5.68;100.00;-5318.19;5111322;28;20607;-60
2023/03/01 00:03:59;;;;;;;3.47;3.27;;;;;;;5.53;100.00;-5001.22;5111279;28;20215;-60
2023/03/01 00:06:27;;;;;;;3.63;3.43;;;;;;;5.58;100.00;-5001.38;5111671;28;20188;-60
2023/03/01 00:08:55;;;;;;;3.80;3.50;;;;;;;5.52;100.00;-4684.72;5111397;28;20182;-60
2023/03/01 00:11:24;;;;;;;3.73;3.53;;;;;;;5.52;100.00;-4368.22;5111213;28;20184;-60
2023/03/01 00:13:53;;;;;;;4.10;3.90;;;;;;;5.35;100.00;-4367.88;5114915;28;20207;-59
2023/03/01 00:16:23;;;;;;;4.00;3.80;;;;;;;5.53;100.00;-4368.25;5115007;28;20229;-61
2023/03/01 00:18:50;;;;;;;4.40;4.20;;;;;;;5.63;100.00;-5001.53;5114899;28;20187;-60
2023/03/01 00:21:17;;;;;;;4.60;4.40;;;;;;;5.46;100.00;-5001.00;5114830;28;20188;-60
2023/03/01 00:23:44;;;;;;;4.80;4.60;;;;;;;5.70;100.00;-5634.75;5114851;28;20183;-60
2023/03/01 00:26:14;;;;;;;5.03;4.73;;;;;;;5.71;100.00;-4368.63;5114876;28;20187;-60
2023/03/01 00:28:43;;;;;;;5.67;5.47;;;;;;;5.61;100.00;-4368.41;5114873;28;20260;-60
2023/03/01 00:31:11;;;;;;;5.17;4.87;;;;;;;5.68;100.00;-5318.19;5114632;28;20262;-60
2023/03/01 00:33:39;;;;;;;4.63;4.33;;;;;;;5.40;100.00;-4367.97;5114539;28;20211;-60
2023/03/01 00:36:07;;;;;;;5.30;5.00;;;;;;;5.49;100.00;-5001.06;5096582;28;20210;-59
2023/03/01 00:38:36;;;;;;;4.70;4.40;;;;;;;5.42;100.00;-5633.59;5114485;28;20183;-60
2023/03/01 00:41:07;;;;;;;5.60;5.20;;;;;;;5.39;100.00;-6898.50;5114559;28;20184;-59
2023/03/01 00:43:36;;;;;;;5.53;5.13;;;;;;;5.38;100.00;-7214.59;5114746;28;20561;-61
2023/03/01 00:46:08;;;;;;;4.57;4.27;;;;;;;5.34;100.00;-6265.75;5114393;28;20187;-60
2023/03/01 00:48:35;;;;;;;5.30;4.80;;;;;;;5.36;100.00;-6582.09;5114461;28;20270;-60
2023/03/01 00:51:06;;;;;;;4.30;4.00;;;;;;;5.31;100.00;-6265.59;5114385;28;20654;-60
2023/03/01 00:53:34;;;;;;;4.97;4.63;;;;;;;5.20;100.00;-6265.00;5114184;28;20207;-60
2023/03/01 00:56:01;;;;;;;4.67;4.47;;;;;;;5.35;100.00;-6265.84;5113938;28;20326;-60
2023/03/01 00:58:28;;;;;;;5.13;4.83;;;;;;;5.18;100.00;-5948.78;5114317;28;20559;-61
2023/03/01 01:00:55;;;;;;;5.37;4.90;;;;;;;5.34;100.00;-6581.97;5114269;28;20653;-60
2023/03/01 01:03:24;;;;;;;5.07;4.60;;;;;;;5.45;100.00;-6582.59;5114247;28;20623;-60
2023/03/01 01:05:51;;;;;;;4.30;4.10;;;;;;;5.31;100.00;-4051.38;5114038;28;20192;-59
2023/03/01 01:08:19;;;;;;;5.20;4.80;;;;;;;5.23;100.00;-3101.94;5114075;28;20187;-61
2023/03/01 01:10:46;;;;;;;4.30;4.03;;;;;;;5.29;100.00;-3418.44;5113873;28;20270;-60
2023/03/01 01:13:13;;;;;;;5.03;4.77;;;;;;;5.30;100.00;-4051.34;5113844;28;20203;-60
2023/03/01 01:15:42;;;;;;;3.57;3.37;;;;;;;5.32;100.00;-4367.81;5114137;28;20191;-59
2023/03/01 01:18:09;;;;;;;4.37;4.07;;;;;;;5.35;100.00;-2785.41;5114101;28;20216;-60
2023/03/01 01:20:38;;;;;;;5.23;4.83;;;;;;;5.36;100.00;-2468.81;5114095;28;20195;-60
2023/03/01 01:23:07;;;;;;;5.40;5.10;;;;;;;5.41;100.00;-2152.13;5113897;28;20206;-59
2023/03/01 01:25:36;;;;;;;5.60;5.30;;;;;;;5.48;100.00;-3418.56;5113512;28;20175;-59
2023/03/01 01:28:02;;;;;;;4.60;4.30;;;;;;;5.45;100.00;-3735.09;5113854;28;20197;-59
2023/03/01 01:30:29;;;;;;;5.43;5.13;;;;;;;5.31;100.00;-4367.78;5113444;28;20183;-60
2023/03/01 01:32:56;;;;;;;5.77;5.37;;;;;;;5.39;100.00;-5317.13;5113655;28;20210;-59
2023/03/01 01:35:23;;;;;;;6.30;6.00;;;;;;;5.47;100.00;-6266.47;5113711;28;20562;-59
2023/03/01 01:37:51;;;;;;;6.53;6.13;;;;;;;5.51;100.00;-5950.31;5113699;28;20187;-60
2023/03/01 01:40:18;;;;;;;6.87;6.40;;;;;;;5.56;100.00;-5634.16;5113617;28;20195;-59
2023/03/01 01:42:45;;;;;;;6.80;6.17;;;;;;;5.45;100.00;-5317.34;5113177;28;20271;-61
2023/03/01 01:45:36;;;;;;;6.40;5.80;;;;;;;5.56;100.00;-5317.72;5113131;28;20184;-60
2023/03/01 01:48:07;;;;;;;6.67;6.13;;;;;;;5.58;100.00;-6267.00;5093689;28;20583;-60
2023/03/01 01:50:38;;;;;;;7.00;6.17;;;;;;;5.66;100.00;-6583.81;5113743;28;20206;-59
2023/03/01 01:53:12;;;;;;;6.87;6.47;;;;;;;5.57;100.00;-6899.59;5113020;28;20271;-60
2023/03/01 01:55:44;;;;;;;7.20;6.80;;;;;;;5.73;100.00;-7533.25;5112926;28;20717;-59
2023/03/01 01:58:14;;;;;;;6.47;6.17;;;;;;;5.69;100.00;-7849.25;5112916;28;20184;-59
2023/03/01 02:00:41;;;;;;;7.10;6.70;;;;;;;5.70;100.00;-7216.69;5113139;28;20210;-59
2023/03/01 02:03:12;;;;;;;6.67;6.37;;;;;;;5.76;100.00;-7849.75;5095054;28;20699;-58
2023/03/01 02:05:45;;;;;;;7.03;6.43;;;;;;;5.70;100.00;-7849.31;5113178;28;20683;-60
2023/03/01 02:08:15;;;;;;;8.47;7.10;;;;;;;5.73;100.00;-8798.19;5112923;28;20583;-60
2023/03/01 02:10:42;;;;;;;7.43;6.83;;;;;;;5.75;100.00;-8798.44;5113070;28;20677;-60
2023/03/01 02:13:10;;;;;;;7.60;7.00;;;;;;;5.64;100.00;-9113.47;5112543;28;20276;-60
2023/03/01 02:15:39;;;;;;;6.20;5.90;;;;;;;5.84;100.00;-8799.28;5112688;28;20222;-59
2023/03/01 02:18:07;;;;;;;7.47;6.87;;;;;;;5.75;100.00;-8165.97;5112427;28;20192;-59
2023/03/01 02:20:40;;;;;;;8.43;7.80;;;;;;;5.86;100.00;-6901.38;5112448;28;20183;-59
2023/03/01 02:23:08;;;;;;;7.70;7.20;;;;;;;5.70;100.00;-6900.41;5112445;28;20195;-59
2023/03/01 02:25:41;;;;;;;8.73;7.83;;;;;;;5.70;100.00;-7849.28;5112830;28;20523;-60
2023/03/01 02:28:13;;;;;;;7.97;7.43;;;;;;;5.58;100.00;-6583.34;5112662;28;20646;-60
2023/03/01 02:31:41;;;;;;;7.87;7.47;;;;;;;5.65;100.00;-7216.41;5112722;28;20588;-62
2023/03/01 02:33:32;;;;;;;7.80;7.30;;;;;;;5.54;100.00;-7848.06;5112149;28;20601;-60
2023/03/01 02:36:01;;;;;;;8.20;7.63;;;;;;;5.56;100.00;-7215.78;5111331;28;20179;-60
2023/03/01 02:38:29;;;;;;;8.50;8.00;;;;;;;5.67;100.00;-7532.81;5112483;28;20194;-60
2023/03/01 02:40:57;;;;;;;8.70;8.20;;;;;;;5.59;100.00;-7532.19;5112315;28;20245;-59
2023/03/01 02:43:29;;;;;;;9.27;8.57;;;;;;;5.59;100.00;-7532.25;5112447;28;20642;-58
2023/03/01 02:46:00;;;;;;;8.80;8.30;;;;;;;5.84;100.00;-7534.03;5112553;28;20594;-61
2023/03/01 02:48:26;;;;;;;9.50;9.00;;;;;;;5.76;100.00;-5951.50;5112301;28;20183;-61
2023/03/01 02:51:06;;;;;;;10.23;9.07;;;;;;;5.72;100.00;-2785.25;5112516;28;20206;-60
2023/03/01 02:53:40;;;;;;;8.77;8.07;;;;;;;5.74;100.00;-4368.69;5112479;28;20203;-61
2023/03/01 02:56:12;;;;;;;10.77;9.43;;;;;;;5.72;100.00;-5318.34;5111872;28;20290;-60
2023/03/01 02:58:45;;;;;;;10.60;9.53;;;;;;;5.66;100.00;-5001.63;5112164;28;20539;-59
2023/03/01 03:01:14;;;;;;;10.70;10.00;;;;;;;5.49;100.00;-3418.56;5111881;28;20278;-60
2023/03/01 03:03:42;;;;;;;11.37;10.33;;;;;;;5.43;100.00;-3418.53;5112405;28;20236;-60
2023/03/01 03:06:10;;;;;;;11.80;10.80;;;;;;;5.48;100.00;-3101.97;5111862;28;20190;-60
2023/03/01 03:08:37;;;;;;;12.23;11.23;;;;;;;5.56;100.00;-2468.63;5112205;28;20176;-59
2023/03/01 03:11:04;;;;;;;11.87;10.77;;;;;;;5.50;100.00;-1835.25;5111934;28;20172;-59
2023/03/01 03:13:32;;;;;;;13.50;12.03;;;;;;;5.56;100.00;-2151.91;5111699;28;20208;-60
2023/03/01 03:15:59;;;;;;;12.03;10.87;;;;;;;5.60;100.00;-2151.84;5112018;28;20558;-60
2023/03/01 03:18:27;;;;;;;12.73;11.60;;;;;;;5.71;100.00;-884.16;5112019;28;20188;-59
2023/03/01 03:20:54;;;;;;;11.90;10.80;;;;;;;5.68;100.00;-884.28;5111658;28;20191;-60
2023/03/01 03:23:24;;;;;;;11.30;10.20;;;;;;;5.71;100.00;-1834.84;5111634;28;20183;-59
2023/03/01 03:25:51;;;;;;;11.50;10.60;;;;;;;5.63;100.00;-1518.19;5111620;28;20190;-59
2023/03/01 03:28:19;;;;;;;12.63;11.33;;;;;;;5.66;100.00;-1201.25;5111995;28;20206;-59
2023/03/01 03:30:46;;;;;;;11.90;10.97;;;;;;;5.67;100.00;-1201.22;5111477;28;20187;-59
2023/03/01 03:33:14;;;;;;;13.27;11.97;;;;;;;5.76;100.00;-1517.88;5111346;28;20298;-60
2023/03/01 03:35:44;;;;;;;13.20;11.83;;;;;;;5.90;100.00;-1200.50;5111935;28;20179;-61
2023/03/01 03:38:16;;;;;;;12.57;11.40;;;;;;;6.08;100.00;-1199.97;5111883;28;20541;-60
2023/03/01 03:40:45;;;;;;;13.33;11.93;;;;;;;5.94;100.00;2923.53;5111502;28;20274;-60
2023/03/01 03:43:14;;;;;;;12.87;11.43;;;;;;;5.84;100.00;6733.28;5111713;28;20278;-59
2023/03/01 03:45:41;;;;;;;11.93;10.83;;;;;;;5.72;100.00;7366.78;5111462;28;20191;-60
2023/03/01 03:48:10;;;;;;;12.30;10.83;;;;;;;5.77;100.00;7685.41;5114261;28;20194;-62
2023/03/01 03:50:37;;;;;;;12.73;11.50;;;;;;;5.85;100.00;5780.25;5116055;28;20195;-61
2023/03/01 03:53:07;;;;;;;12.90;11.67;;;;;;;5.64;100.00;4824.72;5115660;28;20207;-60
2023/03/01 03:55:35;;;;;;;12.93;11.80;;;;;;;5.73;100.00;3873.59;5115481;28;20245;-59
2023/03/01 03:58:06;;;;;;;15.27;12.67;;;;;;;5.60;100.00;1968.63;5115357;28;20184;-60
2023/03/01 04:00:34;;;;;;;11.73;10.77;;;;;;;5.69;100.00;1652.16;5115272;28;20272;-59
2023/03/01 04:03:02;;;;;;;13.57;12.27;;;;;;;5.71;100.00;383.81;5115343;28;20219;-60
2023/03/01 04:05:30;;;;;;;18.07;11.87;;;;;;;5.79;100.00;-566.91;5115219;28;20191;-59
2023/03/01 04:08:06;;;;;;;13.80;12.60;;;;;;;5.92;100.00;385.03;5115474;28;20175;-60
2023/03/01 04:10:37;;;;;;;15.67;13.93;;;;;;;5.85;100.00;384.63;5115733;28;20568;-58
2023/03/01 04:13:05;;;;;;;14.87;13.47;;;;;;;5.91;100.00;-883.44;5114993;28;20199;-59
2023/03/01 04:15:33;;;;;;;16.50;13.30;;;;;;;5.75;100.00;-250.03;5115274;28;20184;-59
2023/03/01 04:18:01;;;;;;;15.03;12.23;;;;;;;5.71;100.00;-1517.97;5114929;28;20186;-59
2023/03/01 04:20:29;;;;;;;16.77;13.37;;;;;;;5.64;100.00;-1518.16;5114877;28;20195;-60
2023/03/01 04:22:59;;;;;;;14.97;13.57;;;;;;;5.79;100.00;-2468.41;5115233;28;20666;-60
2023/03/01 04:25:27;;;;;;;14.20;11.77;;;;;;;5.83;100.00;-2151.50;5115384;28;20203;-60
2023/03/01 04:27:56;;;;;;;17.77;12.83;;;;;;;5.49;100.00;-1201.75;5114858;28;20199;-60
2023/03/01 04:30:25;;;;;;;14.50;12.93;;;;;;;5.79;100.00;-1834.69;5114695;28;20183;-59
2023/03/01 04:32:52;;;;;;;16.37;14.47;;;;;;;5.82;100.00;-1200.75;5114585;28;20191;-60
2023/03/01 04:35:19;;;;;;;14.13;12.60;;;;;;;5.81;100.00;-883.81;5115057;28;20586;-59
2023/03/01 04:37:46;;;;;;;16.37;13.00;;;;;;;5.85;100.00;-883.69;5114919;28;20248;-60
2023/03/01 04:40:16;;;;;;;16.53;13.97;;;;;;;5.80;100.00;67.25;5114557;28;20184;-59
2023/03/01 04:42:43;;;;;;;15.63;13.67;;;;;;;5.96;100.00;68.06;5114412;28;20278;-59
2023/03/01 04:45:13;;;;;;;15.57;12.33;;;;;;;5.70;100.00;1335.06;5114758;28;20616;-59
2023/03/01 04:47:42;;;;;;;15.87;14.17;;;;;;;5.81;100.00;1653.09;5114613;28;20179;-60
2023/03/01 04:50:11;;;;;;;17.63;12.80;;;;;;;5.67;100.00;2286.41;5114440;28;20210;-58
2023/03/01 04:52:38;;;;;;;15.00;13.50;;;;;;;5.85;100.00;2287.94;5114454;28;20183;-59
2023/03/01 04:55:06;;;;;;;14.00;12.57;;;;;;;5.76;100.00;2921.75;5114237;28;20597;-58
2023/03/01 04:57:35;;;;;;;15.90;13.10;;;;;;;5.87;100.00;3240.28;5114542;28;20633;-60
2023/03/01 05:00:19;;;;;;;14.60;13.07;;;;;;;5.96;100.00;3558.66;5112946;28;20209;-60
2023/03/01 05:02:52;;;;;;;13.90;12.40;;;;;;;5.92;100.00;6416.81;5114463;28;20295;-59
2023/03/01 05:05:25;;;;;;;13.60;12.30;;;;;;;5.92;100.00;7370.19;5114070;28;20175;-60
2023/03/01 05:07:53;;;;;;;12.80;11.60;;;;;;;6.04;100.00;11507.41;5114369;28;20557;-59
2023/03/01 05:10:21;;;;;;;11.87;10.80;;;;;;;5.94;100.00;13733.78;5114239;28;20252;-60
2023/03/01 05:12:48;;;;;;;12.90;11.60;;;;;;;5.87;100.00;14687.28;5114105;28;20546;-59
2023/03/01 05:15:15;;;;;;;11.70;10.67;;;;;;;5.82;100.00;12138.81;5113742;28;20208;-60
2023/03/01 05:17:42;;;;;;;12.73;11.57;;;;;;;5.87;100.00;11185.38;5114215;28;20198;-59
2023/03/01 05:20:11;;;;;;;12.67;11.57;;;;;;;5.91;100.00;11504.53;5114047;28;20186;-60
2023/03/01 05:22:38;;;;;;;13.57;12.13;;;;;;;5.89;100.00;12458.75;5114065;28;20215;-59
2023/03/01 05:25:08;;;;;;;14.50;11.90;;;;;;;5.86;100.00;13094.66;5113681;28;20236;-59
2023/03/01 05:27:35;;;;;;;13.50;12.30;;;;;;;5.92;100.00;14051.56;5113715;28;20183;-59
2023/03/01 05:30:13;;;;;;;11.33;10.47;;;;;;;5.77;100.00;16914.25;5113546;28;20191;-62
2023/03/01 05:32:43;;;;;;;13.90;12.27;;;;;;;5.75;100.00;14683.63;5113962;28;20265;-60
2023/03/01 05:35:13;;;;;;;11.27;9.97;;;;;;;5.75;100.00;14683.63;5113621;28;20277;-60
2023/03/01 05:37:42;;;;;;;13.97;12.37;;;;;;;5.82;100.00;15641.47;5113792;28;20278;-59
2023/03/01 05:40:15;;;;;;;12.70;11.53;;;;;;;5.83;100.00;17235.13;5113517;28;20192;-60
2023/03/01 05:42:43;;;;;;;12.43;11.20;;;;;;;5.75;100.00;17869.94;5113589;28;20638;-61
2023/03/01 05:45:12;;;;;;;13.10;11.43;;;;;;;5.77;100.00;13728.97;5113254;28;20183;-59
2023/03/01 05:47:43;;;;;;;14.97;12.30;;;;;;;5.79;100.00;13411.28;5113481;28;20188;-59
2023/03/01 05:50:13;;;;;;;13.67;12.47;;;;;;;5.88;100.00;12776.97;5113545;28;20194;-60
2023/03/01 05:52:40;;;;;;;12.97;11.23;;;;;;;5.78;100.00;11819.59;5113171;28;20180;-59
2023/03/01 05:55:08;;;;;;;15.53;11.50;;;;;;;5.88;100.00;12140.19;5112902;28;20228;-60
2023/03/01 05:57:35;;;;;;;15.50;11.27;;;;;;;5.89;100.00;13413.84;5113426;28;20657;-59
2023/03/01 06:00:02;;;;;;;14.73;11.83;;;;;;;5.82;100.00;15322.88;5113308;28;20717;-60
2023/03/01 06:02:30;;;;;;;15.47;11.97;;;;;;;5.97;100.00;15645.91;5113301;28;20531;-59
2023/03/01 06:04:57;;;;;;;13.20;12.10;;;;;;;5.93;100.00;14688.91;5113110;28;20702;-60
2023/03/01 06:07:25;;;;;;;14.70;12.20;;;;;;;6.10;100.00;14056.47;5112807;28;20187;-60
2023/03/01 06:09:52;;;;;;;14.70;12.83;;;;;;;5.81;100.00;14685.38;5112646;28;20191;-58
2023/03/01 06:12:18;;;;;;;14.40;12.87;;;;;;;6.02;100.00;14054.25;5113069;28;20514;-58
2023/03/01 06:14:47;;;;;;;14.40;12.93;;;;;;;6.02;100.00;12143.69;5112734;28;20531;-58
2023/03/01 06:17:14;;;;;;;14.00;12.63;;;;;;;6.02;100.00;12143.56;5112709;28;20256;-58
2023/03/01 06:19:41;;;;;;;16.40;12.97;;;;;;;6.27;100.00;12786.84;5112629;28;20183;-57
2023/03/01 06:22:08;;;;;;;14.83;12.83;;;;;;;6.28;100.00;14698.94;5112526;28;20526;-58
2023/03/01 06:24:36;;;;;;;14.23;12.77;;;;;;;6.21;100.00;15971.94;5112806;28;20184;-56
2023/03/01 06:27:03;;;;;;;14.03;12.67;;;;;;;6.32;100.00;15018.88;5094640;28;20214;-58
2023/03/01 06:29:30;;;;;;;18.73;13.20;;;;;;;6.29;100.00;15336.78;5112419;28;20207;-60
2023/03/01 06:31:57;;;;;;;14.70;13.27;;;;;;;6.14;100.00;15332.41;5112243;28;20271;-58
2023/03/01 06:34:24;;;;;;;15.17;13.37;;;;;;;6.19;100.00;14377.81;5112425;28;20686;-59
2023/03/01 06:36:51;;;;;;;15.00;13.60;;;;;;;6.25;100.00;12786.44;5112438;28;20183;-59
2023/03/01 06:39:18;;;;;;;13.60;12.33;;;;;;;6.28;100.00;14061.53;5112317;28;20267;-58
2023/03/01 06:41:46;;;;;;;12.60;11.23;;;;;;;6.26;100.00;16611.41;5094239;28;20190;-60
2023/03/01 06:44:15;;;;;;;13.90;12.20;;;;;;;6.17;100.00;14695.75;5112037;28;20184;-59
2023/03/01 06:46:42;;;;;;;15.40;12.67;;;;;;;6.45;100.00;14703.75;5111958;28;20187;-59
2023/03/01 06:49:10;;;;;;;13.37;11.73;;;;;;;6.51;100.00;16619.19;5112140;28;20213;-59
2023/03/01 06:51:37;;;;;;;13.90;12.53;;;;;;;6.53;100.00;20450.78;5113115;28;20183;-64
2023/03/01 06:54:04;;;;;;;15.57;13.70;;;;;;;6.37;100.00;23000.47;5111660;28;20210;-63
2023/03/01 06:56:31;;;;;;;13.60;12.40;;;;;;;6.38;100.00;21403.16;5112153;28;20611;-64
2023/03/01 06:59:00;;;;;;;12.63;11.60;;;;;;;6.33;100.00;22679.00;5094046;28;20203;-64
2023/03/01 07:01:30;;;;;;;12.77;11.47;;;;;;;6.15;100.00;22991.06;5112081;28;20183;-64
2023/03/01 07:03:57;;;;;;;12.93;11.63;;;;;;;6.26;100.00;22037.13;5111682;28;20267;-63
2023/03/01 07:06:27;;;;;;;13.13;12.03;;;;;;;6.16;100.00;15651.59;5111917;28;20218;-64
2023/03/01 07:08:54;;;;;;;17.20;13.07;;;;;;;6.31;100.00;15018.59;5111495;28;20183;-63
2023/03/01 07:11:21;;;;;;;15.27;13.50;;;;;;;6.46;100.00;14704.06;5111485;28;20213;-64
2023/03/01 07:13:47;;;;;;;13.63;12.33;;;;;;;6.57;100.00;15664.06;5111518;28;20187;-62
2023/03/01 07:16:16;;;;;;;18.43;13.97;;;;;;;6.25;100.00;15973.19;5111128;28;20183;-65
2023/03/01 07:18:43;;;;;;;16.97;13.30;;;;;;;6.35;100.00;15019.78;5111306;28;20211;-65
2023/03/01 07:21:13;;;;;;;14.93;13.17;;;;;;;6.35;100.00;16614.16;5111177;28;20194;-64
2023/03/01 07:23:40;;;;;;;15.70;13.60;;;;;;;6.03;100.00;17560.50;5111337;28;20283;-63
2023/03/01 07:26:09;;;;;;;15.17;13.70;;;;;;;6.09;100.00;17243.47;5111196;28;20270;-64
2023/03/01 07:28:38;;;;;;;17.13;13.40;;;;;;;6.15;100.00;12783.72;5111225;28;20187;-63
2023/03/01 07:31:05;;;;;;;18.17;13.43;;;;;;;6.18;100.00;12466.16;5111505;28;20228;-64
2023/03/01 07:33:35;;;;;;;17.97;14.07;;;;;;;6.23;100.00;12148.81;5111540;28;20187;-65
2023/03/01 07:36:05;;;;;;;15.20;13.33;;;;;;;6.07;100.00;12144.94;5110918;28;20214;-64
2023/03/01 07:38:33;;;;;;;17.73;14.50;;;;;;;6.22;100.00;11193.31;5111217;28;20184;-64
2023/03/01 07:41:01;;;;;;;18.97;15.27;;;;;;;5.80;100.00;10547.50;5111196;28;20184;-64
2023/03/01 07:43:29;;;;;;;18.17;12.97;;;;;;;5.98;100.00;8642.88;5111387;28;20333;-64
2023/03/01 07:45:59;;;;;;;21.00;14.63;;;;;;;5.82;100.00;5779.81;5111210;28;20183;-64
2023/03/01 07:48:26;;;;;;;17.00;14.40;;;;;;;5.94;100.00;4511.03;5111483;28;20650;-64
2023/03/01 07:50:54;;;;;;;22.83;14.50;;;;;;;6.04;100.00;4512.25;5111422;28;20188;-63
2023/03/01 07:53:21;;;;;;;22.80;14.57;;;;;;;6.19;100.00;4196.38;5111138;28;20190;-65
2023/03/01 07:56:00;;;;;;;23.97;14.83;;;;;;;6.04;100.00;7372.06;5110817;28;20796;-64
2023/03/01 07:58:27;;;;;;;18.80;14.17;;;;;;;6.31;100.00;7058.69;5111717;28;20199;-62
2023/03/01 08:00:54;;;;;;;20.10;14.83;;;;;;;6.55;100.00;8653.75;5110397;28;20199;-64
2023/03/01 08:03:21;;;;;;;20.13;13.03;;;;;;;6.29;100.00;12787.34;5105547;28;20721;-64
2023/03/01 08:05:48;;;;;;;15.90;14.17;;;;;;;6.09;100.00;14056.34;5091396;28;20212;-62
2023/03/01 08:08:16;;;;;;;15.37;13.77;;;;;;;6.22;100.00;14697.34;5090988;28;20184;-64
2023/03/01 08:10:43;;;;;;;14.70;13.23;;;;;;;6.05;100.00;17242.31;5090699;28;20275;-64
2023/03/01 08:13:10;;;;;;;21.23;14.67;;;;;;;6.33;100.00;16294.59;5091082;28;20561;-65
2023/03/01 08:15:36;;;;;;;21.13;14.53;;;;;;;6.31;100.00;18527.03;5090578;28;20218;-65
2023/03/01 08:18:03;;;;;;;16.00;12.03;;;;;;;6.24;100.00;20758.88;5090602;28;20192;-66
2023/03/01 08:20:30;;;;;;;20.93;14.17;;;;;;;6.49;100.00;23324.84;5090846;28;20180;-63
2023/03/01 08:22:59;;;;;;;20.73;13.67;;;;;;;6.08;100.00;26183.91;5090410;28;20199;-63
2023/03/01 08:25:27;;;;;;;18.93;12.80;;;;;;;6.61;100.00;25249.25;5090501;28;20252;-65
2023/03/01 08:27:54;;;;;;;15.70;12.80;;;;;;;6.74;100.00;33264.34;5090791;28;20207;-65
2023/03/01 08:30:23;;;;;;;14.20;12.70;;;;;;;6.60;100.00;44177.34;5072547;28;20191;-65
2023/03/01 08:32:50;;;;;;;23.00;13.00;;;;;;;6.52;100.00;43206.19;5090529;28;20199;-64
2023/03/01 08:35:17;;;;;;;13.53;12.13;;;;;;;6.48;100.00;49640.75;5093756;28;20669;-64
2023/03/01 08:37:44;;;;;;;19.23;13.23;;;;;;;6.63;100.00;48687.13;5094358;28;20180;-65
2023/03/01 08:40:13;;;;;;;14.67;12.97;;;;;;;6.70;100.00;47726.59;5094537;28;20264;-66
2023/03/01 08:42:42;;;;;;;13.67;12.43;;;;;;;6.59;100.00;60623.94;5094252;28;20181;-65
2023/03/01 08:45:12;;;;;;;14.50;12.40;;;;;;;6.36;100.00;50596.84;5093705;28;20184;-64
2023/03/01 08:47:39;;;;;;;13.33;12.13;;;;;;;6.86;100.00;50640.66;5093840;28;20188;-65
2023/03/01 08:50:07;;;;;;;14.17;12.77;;;;;;;6.69;100.00;63546.34;5094268;28;20570;-64
2023/03/01 08:52:34;;;;;;;20.40;11.00;;;;;;;6.63;100.00;66777.19;5094073;28;20590;-65
2023/03/01 08:55:03;;;;;;;17.03;12.13;;;;;;;6.56;100.00;70657.66;5093505;28;20235;-64
2023/03/01 08:57:30;;;;;;;22.30;13.60;;;;;;;6.49;100.00;62553.41;5094060;28;20184;-64
2023/03/01 08:59:58;;;;;;;15.20;13.30;;;;;;;6.52;100.00;66763.91;5093720;28;20184;-64
2023/03/01 09:02:25;;;;;;;16.53;12.13;;;;;;;6.34;100.00;67067.47;5094326;28;20188;-65
2023/03/01 09:04:52;;;;;;;15.50;12.80;;;;;;;6.55;100.00;68063.03;5094300;28;20187;-63
2023/03/01 09:07:19;;;;;;;15.10;13.70;;;;;;;6.47;100.00;68053.63;5093759;28;20191;-64
2023/03/01 09:09:46;;;;;;;19.93;12.63;;;;;;;6.54;100.00;67090.06;5076614;28;20638;-64
2023/03/01 09:12:13;;;;;;;14.70;13.27;;;;;;;6.68;100.00;73916.75;5093864;28;20180;-64
2023/03/01 09:14:41;;;;;;;17.57;14.33;;;;;;;6.92;100.00;74596.19;5093218;28;20299;-63
2023/03/01 09:17:09;;;;;;;21.00;13.97;;;;;;;6.94;100.00;76222.50;5093789;28;20564;-64
2023/03/01 09:19:36;;;;;;;16.33;14.63;;;;;;;6.87;100.00;99361.47;5093743;28;20191;-64
2023/03/01 09:22:04;;;;;;;15.97;14.27;;;;;;;6.64;100.00;98668.47;5075157;28;20198;-64
2023/03/01 09:24:31;;;;;;;22.53;14.47;;;;;;;6.78;100.00;92158.44;5093462;28;20211;-65
2023/03/01 09:26:58;;;;;;;16.53;14.83;;;;;;;6.74;100.00;87260.22;5093028;28;20279;-64
2023/03/01 09:29:25;;;;;;;15.63;14.07;;;;;;;6.59;100.00;75853.16;5074940;28;20180;-65
2023/03/01 09:31:54;;;;;;;24.87;15.43;;;;;;;6.69;100.00;71970.94;5093246;28;20584;-64
2023/03/01 09:34:23;;;;;;;24.93;14.87;;;;;;;6.85;100.00;66154.63;5093472;28;20187;-65
2023/03/01 09:36:51;;;;;;;25.10;15.73;;;;;;;6.94;100.00;72001.34;5093408;28;20221;-65
2023/03/01 09:39:18;;;;;;;44.07;16.23;;;;;;;7.12;100.00;80474.38;5093362;28;20180;-65
2023/03/01 09:41:54;;;;;;;20.00;15.23;;;;;;;6.41;100.00;84931.56;5092880;28;20184;-66
2023/03/01 09:44:31;;;;;;;24.63;15.63;;;;;;;6.68;100.00;71320.31;5092956;28;20483;-67
2023/03/01 09:46:58;;;;;;;18.20;14.30;;;;;;;6.40;100.00;69018.41;5093300;28;20198;-64
2023/03/01 09:49:30;;;;;;;17.30;14.83;;;;;;;6.58;100.00;63857.25;5092879;28;20211;-64
2023/03/01 09:52:01;;;;;;;20.97;16.00;;;;;;;6.61;100.00;61273.25;5093087;28;20713;-65
2023/03/01 09:54:28;;;;;;;22.83;15.07;;;;;;;6.66;100.00;64514.00;5103476;28;20235;-64
2023/03/01 09:57:06;;;;;;;24.97;15.40;;;;;;;6.54;100.00;70331.00;5113259;28;20203;-65
2023/03/01 09:59:47;;;;;;;19.13;13.83;;;;;;;6.61;100.00;69691.13;5113270;28;20252;-64
2023/03/01 10:02:24;;;;;;;15.80;14.17;;;;;;;6.54;100.00;73249.91;5113066;28;20187;-65
2023/03/01 10:04:56;;;;;;;19.47;14.40;;;;;;;6.59;100.00;66772.56;5113319;28;20183;-65
2023/03/01 10:07:31;;;;;;;22.63;14.13;;;;;;;6.61;100.00;68070.09;5113080;28;20184;-67
2023/03/01 10:10:00;;;;;;;27.00;15.93;;;;;;;6.54;100.00;64824.25;5112980;28;20229;-64
2023/03/01 10:12:34;;;;;;;16.90;14.10;;;;;;;6.41;100.00;67723.84;5094813;28;20195;-67
2023/03/01 10:15:07;;;;;;;15.30;12.17;;;;;;;6.20;100.00;72234.31;5113163;28;20207;-63
2023/03/01 10:17:38;;;;;;;17.43;13.30;;;;;;;6.35;100.00;67393.00;5112755;28;20199;-65
2023/03/01 10:20:25;;;;;;;14.87;13.37;;;;;;;6.37;100.00;68042.44;5112735;28;20179;-64
2023/03/01 10:22:55;;;;;;;23.87;13.60;;;;;;;6.48;100.00;64169.78;5099791;28;20218;-66
2023/03/01 10:25:37;;;;;;;16.60;13.20;;;;;;;6.49;100.00;64818.66;5112285;28;20176;-65
2023/03/01 10:28:14;;;;;;;18.67;13.13;;;;;;;6.40;100.00;69665.84;5112244;28;20274;-65
2023/03/01 10:30:43;;;;;;;16.20;12.27;;;;;;;6.47;100.00;69673.66;5112580;28;20561;-64
2023/03/01 10:33:18;;;;;;;20.97;13.20;;;;;;;6.41;100.00;65780.59;5112236;28;20282;-63
2023/03/01 10:35:47;;;;;;;13.23;11.93;;;;;;;6.43;100.00;62224.59;5112452;28;20207;-65
2023/03/01 10:38:16;;;;;;;13.53;12.00;;;;;;;6.23;100.00;65760.69;5112432;28;20608;-64
2023/03/01 10:40:56;;;;;;;14.23;11.10;;;;;;;6.24;100.00;58649.59;5112148;28;20611;-64
2023/03/01 10:43:24;;;;;;;16.93;12.63;;;;;;;6.16;100.00;53156.97;5112220;28;20260;-66
2023/03/01 10:45:52;;;;;;;18.90;12.83;;;;;;;6.43;100.00;54472.28;5112025;28;20191;-65
2023/03/01 10:48:23;;;;;;;13.97;12.40;;;;;;;6.61;100.00;55457.19;5111893;28;20187;-64
2023/03/01 10:51:05;;;;;;;14.40;12.57;;;;;;;6.55;100.00;64501.16;5112305;28;20195;-63
2023/03/01 10:53:34;;;;;;;17.50;12.80;;;;;;;6.78;100.00;65498.84;5111838;28;20247;-64
2023/03/01 10:56:04;;;;;;;17.60;12.27;;;;;;;6.74;100.00;70679.59;5111124;28;20235;-64
2023/03/01 10:58:32;;;;;;;14.40;12.87;;;;;;;6.77;100.00;64850.06;5111446;28;20183;-66
2023/03/01 11:01:01;;;;;;;15.10;11.87;;;;;;;6.66;100.00;74238.19;5111814;28;20575;-65
2023/03/01 11:03:30;;;;;;;16.33;11.80;;;;;;;6.62;100.00;74882.94;5111660;28;20576;-64
2023/03/01 11:06:05;;;;;;;15.83;12.50;;;;;;;6.67;100.00;73590.25;5111746;28;20190;-65
2023/03/01 11:08:43;;;;;;;17.83;13.93;;;;;;;6.51;100.00;67086.59;5111535;28;20194;-65
2023/03/01 11:11:33;;;;;;;14.30;12.80;;;;;;;6.51;100.00;67734.97;5111434;28;20641;-64
2023/03/01 11:14:01;;;;;;;11.77;10.53;;;;;;;6.49;100.00;67732.66;5111743;28;20526;-65
2023/03/01 11:16:39;;;;;;;14.43;12.93;;;;;;;6.59;100.00;64829.88;5111882;28;20569;-64
2023/03/01 11:19:21;;;;;;;16.27;11.80;;;;;;;6.86;100.00;67775.94;5111875;28;20455;-65
2023/03/01 11:22:02;;;;;;;13.10;11.80;;;;;;;6.76;100.00;85634.06;5111474;28;20187;-65
2023/03/01 11:24:38;;;;;;;10.57;9.77;;;;;;;6.74;100.00;100974.06;5111896;28;20705;-65
2023/03/01 11:27:15;;;;;;;14.23;10.87;;;;;;;6.81;100.00;95755.34;5111803;28;20208;-64
2023/03/01 11:29:46;;;;;;;13.60;12.33;;;;;;;7.00;100.00;109867.09;5093269;28;20195;-65
2023/03/01 11:32:15;;;;;;;18.73;11.63;;;;;;;6.98;100.00;103635.03;5111751;28;20368;-65